Latest Weather Observations for Bickley

IDW60901

Issued at 5:51 pm WST Thursday 25 August 2016 (issued every 10 minutes, with the page automatically refreshed every 10 minutes)

About weather observations | Map of Perth area stations | Latest observations for Perth area | Other Formats
Station Details ID: 009240 Name: BICKLEY Lat: -32.01 Lon: 116.14 Height: 384.0 m
Data from the previous 72 hours. | See also: Recent months at Bickley
Date/Time
WST
Temp
°C
App
Temp
°C
Dew
Point
°C
Rel
Hum
%
Delta-T
°C
Wind Press
QNH
hPa
Press
MSL
hPa
Rain since
9am
mm
Dir  Spd
km/h
Gust
km/h
Spd
kts
Gust
kts
25/05:30pm 12.4 7.6 5.8 64 3.2 ENE 20 33 11 18 - - 0.0
25/05:00pm 12.9 7.7 5.3 60 3.6 ENE 22 33 12 18 - - 0.0
25/04:30pm 14.4 9.5 5.2 54 4.4 ENE 20 39 11 21 - - 0.0
25/04:00pm 15.1 10.8 5.3 52 4.7 ENE 17 32 9 17 - - 0.0
25/03:30pm 15.5 10.7 5.4 51 4.9 ENE 20 39 11 21 - - 0.0
25/03:00pm 15.3 10.7 5.8 53 4.6 ENE 19 32 10 17 - - 0.0
25/02:30pm 15.3 10.5 5.8 53 4.6 E 20 39 11 21 - - 0.0
25/02:00pm 15.4 10.9 5.9 53 4.7 ENE 19 39 10 21 - - 0.0
25/01:30pm 15.2 10.4 5.4 52 4.8 ENE 20 32 11 17 - - 0.0
25/01:00pm 14.4 9.5 5.0 53 4.5 ENE 20 33 11 18 - - 0.0
25/12:30pm 14.0 9.5 5.9 58 3.9 ENE 19 33 10 18 - - 0.0
25/12:00pm 13.8 9.1 5.9 59 3.8 E 20 35 11 19 - - 0.0
25/11:30am 12.9 7.3 5.6 61 3.5 ENE 24 39 13 21 - - 0.0
25/11:00am 12.2 7.0 5.4 63 3.2 E 22 35 12 19 - - 0.0
25/10:30am 11.4 7.2 5.7 68 2.7 ENE 17 30 9 16 - - 0.0
25/10:00am 10.4 6.3 6.2 75 2.0 ENE 17 32 9 17 - - 0.0
25/09:30am 8.8 4.1 6.1 83 1.3 E 20 30 11 16 - - 0.0
25/09:00am 7.7 3.0 6.0 89 0.8 E 20 30 11 16 - - 0.0
25/08:30am 6.6 1.9 5.2 91 0.6 ENE 19 30 10 16 - - 0.0
25/08:00am 5.5 0.7 4.5 93 0.4 E 19 30 10 16 - - 0.0
25/07:30am 4.3 -0.8 3.3 93 0.4 E 19 26 10 14 - - 0.0
25/07:00am 3.8 -1.0 2.6 92 0.5 E 17 24 9 13 - - 0.0
25/06:30am 3.8 -1.4 2.6 92 0.5 E 19 24 10 13 - - 0.0
25/06:00am 3.8 -1.0 2.5 91 0.5 E 17 24 9 13 - - 0.0
25/05:30am 4.1 -1.3 2.6 90 0.6 E 20 30 11 16 - - 0.0
25/05:00am 4.2 -1.2 2.7 90 0.6 E 20 30 11 16 - - 0.0
25/04:30am 4.0 -1.2 2.4 89 0.7 E 19 26 10 14 - - 0.0
25/04:00am 4.1 -0.7 2.5 89 0.7 E 17 24 9 13 - - 0.0
25/03:30am 4.4 -0.8 2.6 88 0.7 E 19 26 10 14 - - 0.0
25/03:00am 4.4 -0.8 2.4 87 0.8 E 19 24 10 13 - - 0.0
25/02:30am 4.8 0.0 2.7 86 0.9 E 17 26 9 14 - - 0.0
25/02:00am 5.1 -0.2 2.8 85 1.0 E 20 28 11 15 - - 0.0
25/01:30am 5.5 0.2 3.2 85 1.0 E 20 30 11 16 - - 0.0
25/01:00am 5.5 0.2 3.2 85 1.0 E 20 30 11 16 - - 0.0
25/12:30am 5.4 0.3 2.9 84 1.1 E 19 30 10 16 - - 0.0
25/12:00am 5.8 0.7 3.0 82 1.2 E 19 26 10 14 - - 0.0
 
Date/Time
WST
Temp
°C
App
Temp
°C
Dew
Point
°C
Rel
Hum
%
Delta-T
°C
Wind Press
QNH
hPa
Press
MSL
hPa
Rain since
9am
mm
Dir  Spd
km/h
Gust
km/h
Spd
kts
Gust
kts
24/11:30pm 6.3 1.0 3.1 80 1.4 E 20 33 11 18 - - 0.0
24/11:00pm 6.7 1.0 3.1 78 1.5 E 22 33 12 18 - - 0.0
24/10:30pm 6.9 1.6 2.8 75 1.7 E 20 30 11 16 - - 0.0
24/10:00pm 6.9 1.5 2.4 73 1.9 E 20 32 11 17 - - 0.0
24/09:30pm 7.4 1.7 2.9 73 1.9 E 22 33 12 18 - - 0.0
24/09:00pm 7.3 2.0 2.8 73 1.9 E 20 32 11 17 - - 0.0
24/08:30pm 7.5 2.4 2.8 72 2.0 E 19 26 10 14 - - 0.0
24/08:00pm 7.7 2.6 3.0 72 2.0 E 19 26 10 14 - - 0.0
24/07:30pm 8.0 3.7 3.1 71 2.1 ESE 15 26 8 14 - - 0.0
24/07:00pm 7.9 3.6 3.0 71 2.1 ESE 15 22 8 12 - - 0.0
24/06:30pm 8.2 4.2 2.7 68 2.4 E 13 20 7 11 - - 0.0
24/06:00pm 9.3 4.6 3.1 65 2.7 E 17 26 9 14 - - 0.0
24/05:30pm 10.4 5.6 2.7 59 3.4 E 17 28 9 15 - - 0.0
24/05:00pm 11.6 7.2 2.9 55 3.9 E 15 33 8 18 - - 0.0
24/04:30pm 12.4 8.1 3.1 53 4.2 E 15 28 8 15 - - 0.0
24/04:00pm 12.8 7.6 2.6 50 4.6 E 19 28 10 15 - - 0.0
24/03:30pm 12.9 8.0 1.9 47 4.9 ENE 17 35 9 19 - - 0.0
24/03:00pm 12.9 7.4 1.9 47 4.9 E 20 35 11 19 - - 0.0
24/02:30pm 13.4 8.5 2.0 46 5.1 ESE 17 33 9 18 - - 0.0
24/02:00pm 13.0 8.1 2.0 47 4.9 ESE 17 32 9 17 - - 0.0
24/01:30pm 12.4 7.8 1.7 48 4.7 E 15 28 8 15 - - 0.0
24/01:00pm 12.3 7.4 1.9 49 4.6 E 17 32 9 17 - - 0.0
24/12:30pm 12.3 7.5 2.5 51 4.4 E 17 33 9 18 - - 0.0
24/12:00pm 10.9 6.6 0.9 50 4.2 E 13 26 7 14 - - 0.0
24/11:30am 11.1 6.1 1.1 50 4.3 E 17 30 9 16 - - 0.0
24/11:00am 10.6 4.6 0.9 51 4.1 E 22 35 12 19 - - 0.0
24/10:30am 10.2 4.0 2.1 57 3.5 E 24 43 13 23 - - 0.0
24/10:00am 9.5 4.7 2.8 63 2.9 E 17 30 9 16 - - 0.0
24/09:30am 8.4 3.2 2.6 67 2.5 E 19 30 10 16 - - 0.0
24/09:00am 6.9 2.2 3.0 76 1.7 E 17 30 9 16 - - 0.0
24/08:30am 5.6 0.9 3.4 86 0.9 E 17 28 9 15 - - 0.0
24/08:00am 4.1 -0.3 2.6 90 0.6 E 15 26 8 14 - - 0.0
24/07:30am 2.6 -2.1 1.1 90 0.6 E 15 26 8 14 - - 0.0
24/07:00am 2.0 -3.1 0.5 90 0.6 E 17 26 9 14 - - 0.0
24/06:30am 1.9 -2.9 0.4 90 0.6 E 15 22 8 12 - - 0.0
24/06:00am 2.0 -2.8 0.4 89 0.6 E 15 22 8 12 - - 0.0
24/05:30am 2.3 -2.5 0.5 88 0.7 E 15 20 8 11 - - 0.0
24/05:00am 2.6 -2.5 0.7 87 0.7 E 17 24 9 13 - - 0.0
24/04:30am 2.8 -1.5 0.7 86 0.8 E 13 20 7 11 - - 0.0
24/04:00am 2.9 -1.8 0.6 85 0.9 E 15 24 8 13 - - 0.0
24/03:30am 3.1 -1.6 0.7 84 0.9 E 15 22 8 12 - - 0.0
24/03:00am 3.3 -1.5 0.5 82 1.1 E 15 22 8 12 - - 0.0
24/02:30am 3.7 -0.7 0.6 80 1.2 E 13 22 7 12 - - 0.0
24/02:00am 4.0 -0.8 0.5 78 1.4 E 15 24 8 13 - - 0.0
24/01:30am 4.3 -0.5 0.5 76 1.5 E 15 24 8 13 - - 0.0
24/01:00am 4.8 -0.3 0.8 75 1.6 ESE 17 26 9 14 - - 0.0
24/12:30am 5.2 0.5 0.8 73 1.8 ESE 15 26 8 14 - - 0.0
24/12:00am 5.7 0.7 1.1 72 1.9 ESE 17 26 9 14 - - 0.0
 
Date/Time
WST
Temp
°C
App
Temp
°C
Dew
Point
°C
Rel
Hum
%
Delta-T
°C
Wind Press
QNH
hPa
Press
MSL
hPa
Rain since
9am
mm
Dir  Spd
km/h
Gust
km/h
Spd
kts
Gust
kts
23/11:30pm 5.9 0.9 1.2 72 1.9 ESE 17 28 9 15 - - 0.0
23/11:00pm 6.1 1.1 1.6 73 1.8 ESE 17 24 9 13 - - 0.0
23/10:30pm 6.5 2.0 2.2 74 1.8 ESE 15 22 8 12 - - 0.0
23/10:00pm 6.7 2.6 2.4 74 1.8 ESE 13 20 7 11 - - 0.0
23/09:30pm 6.6 2.9 2.1 73 1.9 ESE 11 17 6 9 - - 0.0
23/09:00pm 6.9 3.2 2.4 73 1.9 ESE 11 20 6 11 - - 0.0
23/08:30pm 6.9 3.2 2.2 72 2.0 ESE 11 17 6 9 - - 0.0
23/08:00pm 7.2 3.4 1.9 69 2.2 ESE 11 15 6 8 - - 0.0
23/07:30pm 7.2 3.4 1.7 68 2.3 ESE 11 17 6 9 - - 0.0
23/07:00pm 7.5 3.7 1.6 66 2.5 ESE 11 13 6 7 - - 0.0
23/06:30pm 7.5 4.1 1.8 67 2.4 ESE 9 11 5 6 - - 0.0
23/06:00pm 8.4 5.0 1.8 63 2.8 ESE 9 15 5 8 - - 0.0
23/05:30pm 9.6 6.3 2.2 60 3.2 ESE 9 15 5 8 - - 0.0
23/05:00pm 10.2 6.8 1.8 56 3.6 ESE 9 17 5 9 - - 0.0
23/04:30pm 12.6 9.3 2.5 50 4.5 E 9 22 5 12 - - 0.0
23/04:00pm 11.4 7.2 1.6 51 4.2 SE 13 24 7 13 - - 0.0
23/03:30pm 12.3 8.6 2.2 50 4.5 ESE 11 17 6 9 - - 0.0
23/03:00pm 12.3 8.4 1.3 47 4.8 ESE 11 22 6 12 - - 0.0
23/02:30pm 12.4 8.5 1.1 46 4.9 ESE 11 24 6 13 - - 0.0
23/02:00pm 11.6 7.4 1.5 50 4.4 ESE 13 26 7 14 - - 0.0
23/01:30pm 12.7 8.5 1.7 47 4.8 ESE 13 26 7 14 - - 0.0
23/01:00pm 12.0 7.9 2.2 51 4.3 ESE 13 26 7 14 - - 0.0
23/12:30pm 12.2 7.1 0.9 46 4.8 E 17 32 9 17 - - 0.0
23/12:00pm 12.3 8.5 1.9 49 4.6 SE 11 22 6 12 - - 0.0
23/11:30am 11.7 6.7 1.4 49 4.4 ESE 17 26 9 14 - - 0.0
23/11:00am 11.3 6.6 3.1 57 3.7 ESE 17 33 9 18 - - 0.0
23/10:30am 10.7 5.5 2.5 57 3.6 ESE 19 35 10 19 - - 0.0
23/10:00am 10.5 5.9 3.8 63 3.0 E 17 32 9 17 - - 0.0
23/09:30am 9.7 5.9 3.7 66 2.7 ESE 13 24 7 13 - - 0.0
23/09:00am 8.7 4.1 3.5 70 2.3 ESE 17 28 9 15 - - 0.0
23/08:30am 7.5 3.6 3.2 74 1.9 ESE 13 22 7 12 - - 0.0
23/08:00am 6.6 2.7 3.4 80 1.4 ESE 13 22 7 12 - - 0.0
23/07:30am 4.7 0.6 2.1 83 1.1 SE 13 20 7 11 - - 0.0
23/07:00am 4.4 0.2 1.8 83 1.1 SE 13 20 7 11 - - 0.0
23/06:30am 4.4 0.2 1.9 84 1.0 SE 13 20 7 11 - - 0.0
23/06:00am 4.6 0.5 2.1 84 1.0 SE 13 20 7 11 - - 0.0
23/05:30am 4.6 0.5 2.1 84 1.0 SE 13 17 7 9 - - 0.0
23/05:00am 4.7 0.6 2.2 84 1.0 SE 13 17 7 9 - - 0.0
23/04:30am 4.5 0.4 2.2 85 0.9 SE 13 17 7 9 - - 0.0
23/04:00am 4.4 0.3 2.1 85 0.9 SE 13 15 7 8 - - 0.0
23/03:30am 4.4 0.6 1.9 84 1.0 ESE 11 15 6 8 - - 0.0
23/03:00am 4.5 0.4 2.0 84 1.0 SE 13 15 7 8 - - 0.0
23/02:30am 4.8 1.0 2.0 82 1.1 SE 11 15 6 8 - - 0.0
23/02:00am 5.2 1.5 2.4 82 1.2 SE 11 15 6 8 - - 0.0
23/01:30am 5.4 1.7 2.2 80 1.3 SE 11 15 6 8 - - 0.0
23/01:00am 5.9 1.8 2.5 79 1.4 SE 13 17 7 9 - - 0.0
23/12:30am 5.7 1.6 2.4 79 1.4 SE 13 17 7 9 - - 0.0
23/12:00am 5.7 1.6 2.2 78 1.5 SSE 13 17 7 9 - - 0.0
 
Date/Time
WST
Temp
°C
App
Temp
°C
Dew
Point
°C
Rel
Hum
%
Delta-T
°C
Wind Press
QNH
hPa
Press
MSL
hPa
Rain since
9am
mm
Dir  Spd
km/h
Gust
km/h
Spd
kts
Gust
kts
22/11:30pm 5.8 1.7 2.1 77 1.5 SSE 13 17 7 9 - - 0.0
22/11:00pm 6.4 2.3 2.3 75 1.7 SSE 13 20 7 11 - - 0.0
22/10:30pm 6.6 2.5 2.3 74 1.8 SSE 13 20 7 11 - - 0.0
22/10:00pm 6.5 2.4 2.4 75 1.7 SSE 13 20 7 11 - - 0.0
22/09:30pm 6.8 2.8 3.1 77 1.6 SSE 13 20 7 11 - - 0.0
22/09:00pm 6.7 2.8 3.3 79 1.5 SSE 13 17 7 9 - - 0.0
22/08:30pm 6.7 2.7 3.1 78 1.5 S 13 17 7 9 - - 0.0
22/08:00pm 7.0 3.4 2.9 75 1.8 SSW 11 15 6 8 - - 0.0
22/07:30pm 7.6 4.0 3.1 73 1.9 SSW 11 15 6 8 - - 0.0
22/07:00pm 8.0 4.5 3.3 72 2.0 SSW 11 17 6 9 - - 0.0
22/06:30pm 8.4 4.5 3.3 70 2.2 SSW 13 20 7 11 - - 0.0
22/06:00pm 9.1 5.6 3.5 68 2.5 SSW 11 17 6 9 - - 0.0

Latest Capital City Observations: Canberra | Sydney | Melbourne | Brisbane | Adelaide | Perth | Hobart | Darwin

Other Formats:

Comma delimited format used in spreadsheet applications
http://www.bom.gov.au/fwo/IDW60901/IDW60901.95610.axf

JavaScript Object Notation format (JSON) in row-major order
http://www.bom.gov.au/fwo/IDW60901/IDW60901.95610.json